< < Back
Terminal Aerodrome Forecast


Current Version              Previous Versions:   1  2  3  4  5  6  7  8  9  

Terminal Aerodrome Forecast

628
FTUS44 KMRX 251723
TAFTYS
TAF
KTYS 251723Z 2518/2618 23010KT P6SM BKN100
     FM260000 23009KT P6SM VCSH OVC050
     FM260400 23006KT 5SM -RA BR BKN015
     FM261000 25010KT 2SM -RA BR OVC009
     FM261400 28012KT P6SM OVC015=

Latest METAR

666
SAUS80 KWBC 251800
MTRTYS
METAR KTYS 251753Z 23016G23KT 10SM FEW010 BKN250 11/01 A2977 RMK AO2
SLP081 T01110011 10111 20006 58031


USA.gov is the U.S. government's official web portal to all federal, state and local government web resources and services.